Flight Track Log - Related Links

Times and Time Zones

All times are in EDT time to prevent confusion due to time zone crossing. See the XOJ548 flight status page for this flight to view local times or setup timezone preferences in your user account.

Time Position Orientation Groundspeed Altitude Reporting Facility
EDT Latitude Longitude Course Direction KTS MPH feet Rate Location/Type
Wed 01:52:45 PM 40.4253 -80.2939 180° South 271 312 6,400  Level Cleveland Center
Wed 01:53:45 PM 40.3628 -80.2889 177° South 269 310 10,500 4,000 Climbing Cleveland Center
Wed 01:54:45 PM 40.2772 -80.2864 179° South 293 337 14,400 3,600 Climbing Cleveland Center
Wed 01:55:45 PM 40.1897 -80.2869 180° South 298 343 17,700 3,450 Climbing Cleveland Center
Wed 01:56:45 PM 40.0958 -80.2872 180° South 313 360 21,300 3,150 Climbing Cleveland Center
Wed 01:57:00 PM 39.7882 -80.2500 180° South  Level FlightAware Approximate
Wed 01:57:45 PM 39.9981 -80.2850 179° South 333 383 24,000  Level Cleveland Center
Wed 01:58:00 PM 39.6720 -80.2500 180° South  Level FlightAware Approximate
Wed 01:58:45 PM 39.8958 -80.2828 179° South 354 407 26,400  Level Cleveland Center
Wed 02:00:45 PM 39.6686 -80.2783 179° South 396 456 30,900 1,624 Climbing Cleveland Center
Wed 02:01:35 PM 39.5725 -80.2761 179° South 416 479 31,000 54 Climbing Washington Center
Wed 02:02:36 PM 39.4436 -80.2731 179° South 440 506 31,000  Level Washington Center
Wed 02:03:33 PM 39.3144 -80.2703 179° South 462 532 31,000  Level Washington Center
Wed 02:04:34 PM 39.1897 -80.2594 176° South 462 532 31,000 893 Level Washington Center
Wed 02:05:34 PM 39.0653 -80.2461 175° South 457 526 32,800 992 Climbing Washington Center
Wed 02:06:35 PM 38.9339 -80.2406 178° South 457 526 33,000 99 Climbing Washington Center
Wed 02:07:35 PM 38.8094 -80.2272 175° South 457 526 33,000  Level Washington Center
Wed 02:08:33 PM 38.6908 -80.2172 176° South 462 532 33,000 458 Level Washington Center
Wed 02:09:33 PM 38.5644 -80.2014 174° South 462 532 33,900 1,289 Climbing Washington Center
Wed 02:10:34 PM 38.4419 -80.1883 175° South 457 526 35,600 1,033 Climbing Washington Center
Wed 02:11:35 PM 38.3047 -80.1747 176° South 452 520 36,000 347 Climbing Washington Center
Wed 02:12:35 PM 38.1781 -80.1617 175° South 460 529 36,300 508 Climbing Washington Center
Wed 02:13:33 PM 38.0514 -80.1486 175° South 460 529 37,000 403 Climbing Washington Center
Wed 02:14:34 PM 37.9392 -80.1364 175° South 455 524 37,100 738 Climbing Washington Center
Wed 02:15:35 PM 37.8122 -80.1236 175° South 455 524 38,500 1,289 Climbing Washington Center
Wed 02:16:35 PM 37.6897 -80.1136 176° South 455 524 39,700 1,271 Climbing Washington Center
Wed 02:17:33 PM 37.5544 -80.1003 176° South 455 524 41,000 915 Climbing Washington Center
Wed 02:18:33 PM 37.4317 -80.0931 177° South 455 524 41,500 397 Climbing Washington Center
Wed 02:19:34 PM 37.3072 -80.0778 174° South 455 524 41,800 590 Climbing Washington Center
Wed 02:20:35 PM 37.1906 -80.0711 177° South 460 529 42,700 857 Climbing Washington Center
Wed 02:21:33 PM 37.0658 -80.0586 175° South 460 529 43,500 542 Climbing Washington Center
Wed 02:23:32 PM 36.8211 -80.1050 189° South 455 524 44,300 436 Climbing Atlanta Center
Wed 02:24:32 PM 36.6892 -80.1506 195° South 450 518 44,800 350 Climbing Atlanta Center
Wed 02:25:32 PM 36.5714 -80.1872 194° South 450 518 45,000 100 Climbing Atlanta Center
Wed 02:26:32 PM 36.4517 -80.2267 195° South 450 518 45,000  Level Atlanta Center
Wed 02:27:32 PM 36.3422 -80.2600 194° South 450 518 45,000  Level Atlanta Center
Wed 02:28:32 PM 36.2200 -80.2917 192° South 450 518 45,000  Level Atlanta Center
Wed 02:29:32 PM 36.0978 -80.3203 191° South 450 518 45,000  Level Atlanta Center
Wed 02:30:32 PM 35.9756 -80.3492 191° South 450 518 45,000  Level Atlanta Center
Wed 02:31:32 PM 35.8453 -80.3806 191° South 443 510 45,000  Level Atlanta Center
Wed 02:32:32 PM 35.7208 -80.4092 191° South 449 517 45,000  Level Atlanta Center
Wed 02:33:32 PM 35.6111 -80.4344 191° South 449 517 45,000  Level Atlanta Center
Wed 02:34:32 PM 35.4889 -80.4603 190° South 449 517 45,000  Level Atlanta Center
Wed 02:35:32 PM 35.3644 -80.4886 191° South 449 517 45,000  Level Atlanta Center
Wed 02:36:32 PM 35.2400 -80.5194 191° South 454 522 45,000  Level Atlanta Center
Wed 02:37:32 PM 35.1075 -80.5528 192° South 454 522 45,000  Level Atlanta Center
Wed 02:38:32 PM 34.9872 -80.5756 189° South 444 511 45,000  Level Atlanta Center
Wed 02:40:39 PM 34.7322 -80.6392 192° South 455 524 45,000  Level Jacksonville Center
Wed 02:41:39 PM 34.6117 -80.6650 190° South 448 516 45,000  Level Jacksonville Center
Wed 02:42:39 PM 34.4892 -80.6933 191° South 448 516 45,000  Level Jacksonville Center
Wed 02:43:39 PM 34.3728 -80.7214 191° South 461 531 45,000  Level Jacksonville Center
Wed 02:44:39 PM 34.2458 -80.7497 190° South 448 516 45,000  Level Jacksonville Center
Wed 02:45:39 PM 34.1233 -80.7753 190° South 448 516 45,000  Level Jacksonville Center
Wed 02:46:39 PM 33.9986 -80.8011 190° South 448 516 45,000  Level Jacksonville Center
Wed 02:47:39 PM 33.8758 -80.8289 191° South 448 516 45,000  Level Jacksonville Center
Wed 02:48:39 PM 33.7553 -80.8592 192° South 448 516 45,000  Level Jacksonville Center
Wed 02:49:39 PM 33.6306 -80.8844 190° South 453 521 45,000  Level Jacksonville Center
Wed 02:50:39 PM 33.5058 -80.9097 190° South 453 521 45,000  Level Jacksonville Center
Wed 02:51:39 PM 33.3831 -80.9375 191° South 453 521 45,000 -150 Level Jacksonville Center
Wed 02:52:39 PM 33.2561 -80.9650 190° South 453 521 44,700 -400 Descending Jacksonville Center
Wed 02:53:39 PM 33.1292 -80.9925 190° South 463 533 44,200 -500 Descending Jacksonville Center
Wed 02:54:39 PM 33.0022 -81.0200 190° South 468 539 43,700 -500 Descending Jacksonville Center
Wed 02:55:39 PM 32.8858 -81.0472 191° South 468 539 43,200 -400 Descending Jacksonville Center
Wed 02:56:39 PM 32.7608 -81.0719 189° South 468 539 42,900 -100 Descending Jacksonville Center
Wed 02:57:39 PM 32.6339 -81.0992 190° South 443 510 43,000 50 Climbing Jacksonville Center
Wed 02:58:39 PM 32.5111 -81.1189 188° South 436 502 43,000  Level Jacksonville Center
Wed 02:59:39 PM 32.3919 -81.1164 179° South 457 526 43,000  Level Jacksonville Center
Wed 03:00:39 PM 32.2647 -81.1164 180° South 465 535 43,000  Level Jacksonville Center
Wed 03:01:39 PM 32.1375 -81.1164 180° South 465 535 43,000  Level Jacksonville Center
Wed 03:02:39 PM 32.0058 -81.1164 180° South 465 535 43,000  Level Jacksonville Center
Wed 03:03:39 PM 31.8658 -81.1142 179° South 465 535 43,000  Level Jacksonville Center
Wed 03:04:39 PM 31.7364 -81.1142 180° South 465 535 43,000  Level Jacksonville Center
Wed 03:05:40 PM 31.6153 -81.1142 180° South 465 535 43,000  Level Jacksonville Center
Wed 03:06:39 PM 31.4714 -81.1144 180° South 470 541 43,000  Level Jacksonville Center
Wed 03:08:39 PM 31.2208 -81.1167 180° South 478 550 43,000 -33 Level Jacksonville Center
Wed 03:09:39 PM 31.0872 -81.1169 180° South 478 550 42,900 -700 Descending Jacksonville Center
Wed 03:10:39 PM 30.9556 -81.1169 180° South 473 544 41,600 -2,200 Descending Jacksonville Center
Wed 03:11:39 PM 30.8158 -81.1147 179° South 468 539 38,500 -3,150 Descending Jacksonville Center
Wed 03:12:39 PM 30.6822 -81.1147 180° South 474 545 35,300 -2,250 Descending Jacksonville Center
Wed 03:13:39 PM 30.5486 -81.1147 180° South 479 551 34,000 -950 Descending Jacksonville Center
Wed 03:14:39 PM 30.4086 -81.1150 180° South 484 557 33,400 -1,500 Descending Jacksonville Center
Wed 03:15:39 PM 30.2728 -81.1150 180° South 489 563 31,000 -2,450 Descending Jacksonville Center
Wed 03:16:39 PM 30.1331 -81.1178 181° South 496 571 28,500 -2,550 Descending Jacksonville Center
Wed 03:17:39 PM 29.9994 -81.1178 180° South 496 571 25,900 -2,250 Descending Jacksonville Center
Wed 03:18:39 PM 29.8742 -81.1178 180° South 474 545 24,000 -950 Descending Jacksonville Center
Wed 03:19:39 PM 29.7531 -81.1175 180° South 451 519 24,000  Level Jacksonville Center
Wed 03:20:39 PM 29.6319 -81.1172 180° South 441 507 24,000 -350 Level Jacksonville Center
Wed 03:21:39 PM 29.5108 -81.1147 179° South 441 507 23,300 -1,700 Descending Jacksonville Center
Wed 03:22:39 PM 29.3900 -81.1169 181° South 436 502 20,600 -2,700 Descending Jacksonville Center
Wed 03:23:39 PM 29.2772 -81.1189 181° South 429 494 17,900 -2,500 Descending Jacksonville Center
Wed 03:24:39 PM 29.1725 -81.1042 173° South 412 474 15,600 -2,250 Descending Jacksonville Center
Wed 03:25:39 PM 29.0744 -81.0964 176° South 383 441 13,400 -1,800 Descending Jacksonville Center
Wed 03:26:39 PM 28.9844 -81.0886 176° South 355 409 12,000 -1,600 Descending Jacksonville Center
Wed 03:27:39 PM 28.9008 -81.0736 171° South 322 371 10,200 -1,250 Descending Jacksonville Center
Wed 03:28:39 PM 28.8256 -81.0583 170° South 297 342 9,500 -950 Descending Jacksonville Center
Wed 03:29:39 PM 28.7611 -81.0714 190° South 245 282 8,300 -950 Descending Jacksonville Center
Wed 03:30:39 PM 28.7433 -81.1475 255° West 201 231 7,600 -750 Descending Jacksonville Center
Wed 03:31:39 PM 28.7381 -81.2208 265° West 206 237 6,800 -950 Descending Jacksonville Center
Wed 03:32:39 PM 28.7367 -81.2897 269° West 217 250 5,700 -1,000 Descending Jacksonville Center
Wed 03:33:39 PM 28.7250 -81.3514 258° West 223 257 4,800 -838 Descending Jacksonville Center
Wed 03:34:55 PM 28.6500 -81.3500 179° South 193 222 3,800 -595 Descending Orlando TRACON
Wed 03:35:50 PM 28.6000 -81.3500 180° South 187 215 3,500 -522 Descending Orlando TRACON
Wed 03:36:50 PM 28.5500 -81.3333 164° South 176 203 2,800 -912 Descending Orlando TRACON
Wed 03:37:55 PM 28.5000 -81.3333 180° South 170 196 1,600 -1,100 Descending Orlando TRACON
Wed 03:38:50 PM 28.4667 -81.3333 180° South 145 167 600 -1,091 Descending Orlando TRACON
Wed 03:40:00 PM 28.4294 -81.3090 180° South  Level Estimated
Wed 03:47:00 PM 28.4294 -81.3090 336° Northwest  Level Estimated
Wed 03:48:00 PM 28.4294 -81.3090 336° Northwest  Level Estimated
Wed 03:49:00 PM 28.4294 -81.3090 336° Northwest  Level Estimated
Wed 03:50:00 PM 28.4294 -81.3090 336° Northwest  Level Estimated

Login

Don't have an account? Register now (free) for customized features, flight alerts, and more!